sensor_id;sensor_type;location;lat;lon;timestamp;P1;durP1;ratioP1;P2;durP2;ratioP2
58310;SDS011;45001;52.218;5.154;2022-07-29T00:00:25;2.15;;;0.90;;
58310;SDS011;45001;52.218;5.154;2022-07-29T00:02:51;2.10;;;0.82;;
58310;SDS011;45001;52.218;5.154;2022-07-29T00:05:17;1.23;;;0.85;;
58310;SDS011;45001;52.218;5.154;2022-07-29T00:07:42;2.30;;;0.60;;
58310;SDS011;45001;52.218;5.154;2022-07-29T00:10:07;1.52;;;0.63;;
58310;SDS011;45001;52.218;5.154;2022-07-29T00:12:33;1.02;;;0.50;;
58310;SDS011;45001;52.218;5.154;2022-07-29T00:14:58;1.80;;;0.70;;
58310;SDS011;45001;52.218;5.154;2022-07-29T00:17:24;1.80;;;0.60;;
58310;SDS011;45001;52.218;5.154;2022-07-29T00:19:50;0.98;;;0.60;;
58310;SDS011;45001;52.218;5.154;2022-07-29T00:22:15;1.52;;;0.73;;
58310;SDS011;45001;52.218;5.154;2022-07-29T00:24:40;1.38;;;0.75;;
58310;SDS011;45001;52.218;5.154;2022-07-29T00:27:06;3.40;;;0.80;;
58310;SDS011;45001;52.218;5.154;2022-07-29T00:29:31;1.67;;;0.70;;
58310;SDS011;45001;52.218;5.154;2022-07-29T00:31:56;1.20;;;0.60;;
58310;SDS011;45001;52.218;5.154;2022-07-29T00:34:22;0.90;;;0.57;;
58310;SDS011;45001;52.218;5.154;2022-07-29T00:37:05;1.95;;;0.70;;
58310;SDS011;45001;52.218;5.154;2022-07-29T00:39:31;1.27;;;0.60;;
58310;SDS011;45001;52.218;5.154;2022-07-29T00:41:56;1.57;;;0.63;;
58310;SDS011;45001;52.218;5.154;2022-07-29T00:44:21;1.35;;;0.70;;
58310;SDS011;45001;52.218;5.154;2022-07-29T00:46:46;1.48;;;0.70;;
58310;SDS011;45001;52.218;5.154;2022-07-29T00:49:12;1.53;;;0.60;;
58310;SDS011;45001;52.218;5.154;2022-07-29T00:51:38;1.05;;;0.50;;
58310;SDS011;45001;52.218;5.154;2022-07-29T00:54:04;1.20;;;0.60;;
58310;SDS011;45001;52.218;5.154;2022-07-29T00:56:30;1.23;;;0.60;;
58310;SDS011;45001;52.218;5.154;2022-07-29T00:58:56;2.88;;;0.70;;
58310;SDS011;45001;52.218;5.154;2022-07-29T01:01:22;1.55;;;0.63;;
58310;SDS011;45001;52.218;5.154;2022-07-29T01:03:47;0.98;;;0.50;;
58310;SDS011;45001;52.218;5.154;2022-07-29T01:06:13;1.45;;;0.80;;
58310;SDS011;45001;52.218;5.154;2022-07-29T01:08:40;2.03;;;0.88;;
58310;SDS011;45001;52.218;5.154;2022-07-29T01:11:06;1.30;;;0.68;;
58310;SDS011;45001;52.218;5.154;2022-07-29T01:13:31;1.10;;;0.60;;
58310;SDS011;45001;52.218;5.154;2022-07-29T01:15:59;1.75;;;0.60;;
58310;SDS011;45001;52.218;5.154;2022-07-29T01:18:30;1.83;;;0.60;;
58310;SDS011;45001;52.218;5.154;2022-07-29T01:27:04;1.58;;;0.85;;
58310;SDS011;45001;52.218;5.154;2022-07-29T01:29:33;1.25;;;0.88;;
58310;SDS011;45001;52.218;5.154;2022-07-29T01:34:50;1.75;;;0.57;;
58310;SDS011;45001;52.218;5.154;2022-07-29T01:37:23;1.92;;;0.63;;
58310;SDS011;45001;52.218;5.154;2022-07-29T01:40:11;1.27;;;0.70;;
58310;SDS011;45001;52.218;5.154;2022-07-29T01:42:45;1.13;;;0.73;;
58310;SDS011;45001;52.218;5.154;2022-07-29T01:45:28;1.30;;;0.70;;
58310;SDS011;45001;52.218;5.154;2022-07-29T01:50:30;1.63;;;0.68;;
58310;SDS011;45001;52.218;5.154;2022-07-29T01:53:06;1.27;;;0.65;;
58310;SDS011;45001;52.218;5.154;2022-07-29T01:55:36;1.08;;;0.60;;
58310;SDS011;45001;52.218;5.154;2022-07-29T01:58:05;1.00;;;0.60;;
58310;SDS011;45001;52.218;5.154;2022-07-29T02:00:32;1.48;;;0.70;;
58310;SDS011;45001;52.218;5.154;2022-07-29T02:02:59;1.33;;;0.60;;
58310;SDS011;45001;52.218;5.154;2022-07-29T02:05:29;1.30;;;0.75;;
58310;SDS011;45001;52.218;5.154;2022-07-29T02:07:57;1.58;;;0.57;;
58310;SDS011;45001;52.218;5.154;2022-07-29T02:10:26;1.38;;;0.70;;
58310;SDS011;45001;52.218;5.154;2022-07-29T02:15:21;2.33;;;0.70;;
58310;SDS011;45001;52.218;5.154;2022-07-29T02:17:55;1.30;;;0.60;;
58310;SDS011;45001;52.218;5.154;2022-07-29T02:20:43;1.38;;;0.63;;
58310;SDS011;45001;52.218;5.154;2022-07-29T02:23:12;1.80;;;0.80;;
58310;SDS011;45001;52.218;5.154;2022-07-29T02:25:40;1.50;;;0.60;;
58310;SDS011;45001;52.218;5.154;2022-07-29T02:28:07;3.33;;;1.23;;
58310;SDS011;45001;52.218;5.154;2022-07-29T02:30:33;1.50;;;0.70;;
58310;SDS011;45001;52.218;5.154;2022-07-29T02:33:04;1.15;;;0.57;;
58310;SDS011;45001;52.218;5.154;2022-07-29T02:35:30;1.58;;;0.80;;
58310;SDS011;45001;52.218;5.154;2022-07-29T02:37:56;1.00;;;0.60;;
58310;SDS011;45001;52.218;5.154;2022-07-29T02:40:41;1.92;;;0.80;;
58310;SDS011;45001;52.218;5.154;2022-07-29T02:43:08;2.10;;;0.70;;
58310;SDS011;45001;52.218;5.154;2022-07-29T02:45:35;2.10;;;0.75;;
58310;SDS011;45001;52.218;5.154;2022-07-29T02:48:01;1.35;;;0.60;;
58310;SDS011;45001;52.218;5.154;2022-07-29T02:50:38;2.25;;;0.85;;
58310;SDS011;45001;52.218;5.154;2022-07-29T02:53:18;1.35;;;0.70;;
58310;SDS011;45001;52.218;5.154;2022-07-29T02:55:57;0.90;;;0.60;;
58310;SDS011;45001;52.218;5.154;2022-07-29T02:58:33;1.60;;;0.70;;
58310;SDS011;45001;52.218;5.154;2022-07-29T03:01:07;2.83;;;0.90;;
58310;SDS011;45001;52.218;5.154;2022-07-29T03:03:40;1.02;;;0.65;;
58310;SDS011;45001;52.218;5.154;2022-07-29T03:06:08;1.15;;;0.60;;
58310;SDS011;45001;52.218;5.154;2022-07-29T03:08:35;1.60;;;0.60;;
58310;SDS011;45001;52.218;5.154;2022-07-29T03:11:01;1.77;;;0.90;;
58310;SDS011;45001;52.218;5.154;2022-07-29T03:13:27;1.55;;;0.70;;
58310;SDS011;45001;52.218;5.154;2022-07-29T03:15:53;2.10;;;0.80;;
58310;SDS011;45001;52.218;5.154;2022-07-29T03:18:18;1.55;;;0.68;;
58310;SDS011;45001;52.218;5.154;2022-07-29T03:20:44;1.67;;;0.75;;
58310;SDS011;45001;52.218;5.154;2022-07-29T03:23:10;1.50;;;1.00;;
58310;SDS011;45001;52.218;5.154;2022-07-29T03:25:35;1.63;;;0.60;;
58310;SDS011;45001;52.218;5.154;2022-07-29T03:28:01;1.38;;;0.63;;
58310;SDS011;45001;52.218;5.154;2022-07-29T03:30:27;1.80;;;0.70;;
58310;SDS011;45001;52.218;5.154;2022-07-29T03:32:55;2.45;;;0.73;;
58310;SDS011;45001;52.218;5.154;2022-07-29T03:35:21;2.08;;;0.75;;
58310;SDS011;45001;52.218;5.154;2022-07-29T03:37:46;1.73;;;0.60;;
58310;SDS011;45001;52.218;5.154;2022-07-29T03:40:13;2.47;;;0.80;;
58310;SDS011;45001;52.218;5.154;2022-07-29T03:42:43;1.25;;;0.70;;
58310;SDS011;45001;52.218;5.154;2022-07-29T03:45:12;2.75;;;0.90;;
58310;SDS011;45001;52.218;5.154;2022-07-29T03:47:45;1.73;;;0.80;;
58310;SDS011;45001;52.218;5.154;2022-07-29T03:50:13;1.65;;;0.77;;
58310;SDS011;45001;52.218;5.154;2022-07-29T03:52:40;1.92;;;0.75;;
58310;SDS011;45001;52.218;5.154;2022-07-29T03:55:05;2.15;;;0.75;;
58310;SDS011;45001;52.218;5.154;2022-07-29T03:57:32;3.65;;;0.90;;
58310;SDS011;45001;52.218;5.154;2022-07-29T03:59:59;2.08;;;0.70;;
58310;SDS011;45001;52.218;5.154;2022-07-29T04:02:26;2.85;;;0.93;;
58310;SDS011;45001;52.218;5.154;2022-07-29T04:04:51;2.20;;;0.88;;
58310;SDS011;45001;52.218;5.154;2022-07-29T04:07:17;1.38;;;0.70;;
58310;SDS011;45001;52.218;5.154;2022-07-29T04:09:43;1.02;;;0.60;;
58310;SDS011;45001;52.218;5.154;2022-07-29T04:12:08;0.93;;;0.63;;
58310;SDS011;45001;52.218;5.154;2022-07-29T04:14:34;1.67;;;0.98;;
58310;SDS011;45001;52.218;5.154;2022-07-29T04:17:00;2.03;;;0.95;;
58310;SDS011;45001;52.218;5.154;2022-07-29T04:19:26;2.00;;;0.80;;
58310;SDS011;45001;52.218;5.154;2022-07-29T04:21:52;1.42;;;0.77;;
58310;SDS011;45001;52.218;5.154;2022-07-29T04:24:17;1.88;;;0.60;;
58310;SDS011;45001;52.218;5.154;2022-07-29T04:26:42;1.48;;;0.70;;
58310;SDS011;45001;52.218;5.154;2022-07-29T04:29:08;1.70;;;1.08;;
58310;SDS011;45001;52.218;5.154;2022-07-29T04:31:34;1.48;;;0.70;;
58310;SDS011;45001;52.218;5.154;2022-07-29T04:33:59;1.17;;;0.60;;
58310;SDS011;45001;52.218;5.154;2022-07-29T04:36:24;1.63;;;0.73;;
58310;SDS011;45001;52.218;5.154;2022-07-29T04:38:50;2.22;;;0.70;;
58310;SDS011;45001;52.218;5.154;2022-07-29T04:41:15;1.77;;;0.85;;
58310;SDS011;45001;52.218;5.154;2022-07-29T04:43:40;1.88;;;0.60;;
58310;SDS011;45001;52.218;5.154;2022-07-29T04:46:06;1.20;;;0.70;;
58310;SDS011;45001;52.218;5.154;2022-07-29T04:48:32;1.30;;;0.60;;
58310;SDS011;45001;52.218;5.154;2022-07-29T04:50:57;2.72;;;0.77;;
58310;SDS011;45001;52.218;5.154;2022-07-29T04:53:23;3.80;;;0.93;;
58310;SDS011;45001;52.218;5.154;2022-07-29T04:55:48;1.55;;;0.80;;
58310;SDS011;45001;52.218;5.154;2022-07-29T04:58:14;2.28;;;0.90;;
58310;SDS011;45001;52.218;5.154;2022-07-29T05:00:39;2.38;;;1.10;;
58310;SDS011;45001;52.218;5.154;2022-07-29T05:03:05;2.75;;;0.80;;
58310;SDS011;45001;52.218;5.154;2022-07-29T05:05:30;1.90;;;0.68;;
58310;SDS011;45001;52.218;5.154;2022-07-29T05:07:56;1.58;;;0.70;;
58310;SDS011;45001;52.218;5.154;2022-07-29T05:10:22;2.25;;;0.88;;
58310;SDS011;45001;52.218;5.154;2022-07-29T05:12:47;1.80;;;0.80;;
58310;SDS011;45001;52.218;5.154;2022-07-29T05:15:13;1.50;;;0.80;;
58310;SDS011;45001;52.218;5.154;2022-07-29T05:17:39;1.30;;;0.60;;
58310;SDS011;45001;52.218;5.154;2022-07-29T05:20:05;1.67;;;0.80;;
58310;SDS011;45001;52.218;5.154;2022-07-29T05:22:30;1.50;;;0.80;;
58310;SDS011;45001;52.218;5.154;2022-07-29T05:24:56;1.63;;;0.80;;
58310;SDS011;45001;52.218;5.154;2022-07-29T05:27:21;1.50;;;0.80;;
58310;SDS011;45001;52.218;5.154;2022-07-29T05:29:46;1.52;;;0.70;;
58310;SDS011;45001;52.218;5.154;2022-07-29T05:32:12;1.10;;;0.80;;
58310;SDS011;45001;52.218;5.154;2022-07-29T05:34:37;1.50;;;0.82;;
58310;SDS011;45001;52.218;5.154;2022-07-29T05:37:03;1.30;;;0.70;;
58310;SDS011;45001;52.218;5.154;2022-07-29T05:39:28;1.55;;;0.80;;
58310;SDS011;45001;52.218;5.154;2022-07-29T05:41:53;2.97;;;0.93;;
58310;SDS011;45001;52.218;5.154;2022-07-29T05:44:19;1.52;;;0.70;;
58310;SDS011;45001;52.218;5.154;2022-07-29T05:46:44;1.50;;;0.70;;
58310;SDS011;45001;52.218;5.154;2022-07-29T05:49:09;1.58;;;0.93;;
58310;SDS011;45001;52.218;5.154;2022-07-29T05:51:35;1.35;;;0.90;;
58310;SDS011;45001;52.218;5.154;2022-07-29T05:54:00;1.67;;;0.95;;
58310;SDS011;45001;52.218;5.154;2022-07-29T05:56:26;1.40;;;0.80;;
58310;SDS011;45001;52.218;5.154;2022-07-29T05:58:52;1.88;;;0.80;;
58310;SDS011;45001;52.218;5.154;2022-07-29T06:01:17;2.58;;;0.90;;
58310;SDS011;45001;52.218;5.154;2022-07-29T06:03:42;2.03;;;0.95;;
58310;SDS011;45001;52.218;5.154;2022-07-29T06:06:08;2.67;;;0.90;;
58310;SDS011;45001;52.218;5.154;2022-07-29T06:08:33;2.63;;;0.90;;
58310;SDS011;45001;52.218;5.154;2022-07-29T06:10:59;3.75;;;0.98;;
58310;SDS011;45001;52.218;5.154;2022-07-29T06:13:25;3.08;;;1.05;;
58310;SDS011;45001;52.218;5.154;2022-07-29T06:15:51;4.72;;;1.27;;
58310;SDS011;45001;52.218;5.154;2022-07-29T06:18:16;3.72;;;0.88;;
58310;SDS011;45001;52.218;5.154;2022-07-29T06:20:41;5.22;;;1.08;;
58310;SDS011;45001;52.218;5.154;2022-07-29T06:23:07;3.83;;;1.33;;
58310;SDS011;45001;52.218;5.154;2022-07-29T06:25:32;2.97;;;0.75;;
58310;SDS011;45001;52.218;5.154;2022-07-29T06:28:00;4.70;;;1.10;;
58310;SDS011;45001;52.218;5.154;2022-07-29T06:30:25;2.78;;;0.95;;
58310;SDS011;45001;52.218;5.154;2022-07-29T06:32:51;4.47;;;1.10;;
58310;SDS011;45001;52.218;5.154;2022-07-29T06:35:16;2.78;;;1.15;;
58310;SDS011;45001;52.218;5.154;2022-07-29T06:37:42;3.92;;;1.20;;
58310;SDS011;45001;52.218;5.154;2022-07-29T06:40:07;2.83;;;1.00;;
58310;SDS011;45001;52.218;5.154;2022-07-29T06:42:51;4.30;;;1.27;;
58310;SDS011;45001;52.218;5.154;2022-07-29T06:45:17;4.00;;;1.15;;
58310;SDS011;45001;52.218;5.154;2022-07-29T06:47:42;3.85;;;0.95;;
58310;SDS011;45001;52.218;5.154;2022-07-29T06:50:07;3.60;;;1.35;;
58310;SDS011;45001;52.218;5.154;2022-07-29T06:52:36;2.65;;;1.10;;
58310;SDS011;45001;52.218;5.154;2022-07-29T06:55:02;2.15;;;1.20;;
58310;SDS011;45001;52.218;5.154;2022-07-29T06:57:27;2.55;;;0.90;;
58310;SDS011;45001;52.218;5.154;2022-07-29T06:59:53;3.87;;;1.20;;
58310;SDS011;45001;52.218;5.154;2022-07-29T07:02:18;5.15;;;1.65;;
58310;SDS011;45001;52.218;5.154;2022-07-29T07:04:43;7.47;;;1.90;;
58310;SDS011;45001;52.218;5.154;2022-07-29T07:07:08;2.88;;;1.25;;
58310;SDS011;45001;52.218;5.154;2022-07-29T07:09:34;2.13;;;0.90;;
58310;SDS011;45001;52.218;5.154;2022-07-29T07:11:59;3.45;;;1.30;;
58310;SDS011;45001;52.218;5.154;2022-07-29T07:14:24;3.55;;;1.30;;
58310;SDS011;45001;52.218;5.154;2022-07-29T07:16:51;3.92;;;1.17;;
58310;SDS011;45001;52.218;5.154;2022-07-29T07:19:17;3.22;;;1.40;;
58310;SDS011;45001;52.218;5.154;2022-07-29T07:21:44;2.38;;;1.23;;
58310;SDS011;45001;52.218;5.154;2022-07-29T07:24:09;5.57;;;1.05;;
58310;SDS011;45001;52.218;5.154;2022-07-29T07:26:34;4.73;;;1.30;;
58310;SDS011;45001;52.218;5.154;2022-07-29T07:28:59;3.67;;;1.02;;
58310;SDS011;45001;52.218;5.154;2022-07-29T07:31:25;3.40;;;1.38;;
58310;SDS011;45001;52.218;5.154;2022-07-29T07:33:50;2.40;;;1.30;;
58310;SDS011;45001;52.218;5.154;2022-07-29T07:36:19;3.55;;;1.40;;
58310;SDS011;45001;52.218;5.154;2022-07-29T07:38:45;1.98;;;1.10;;
58310;SDS011;45001;52.218;5.154;2022-07-29T07:41:10;4.25;;;1.08;;
58310;SDS011;45001;52.218;5.154;2022-07-29T07:43:35;3.38;;;1.25;;
58310;SDS011;45001;52.218;5.154;2022-07-29T07:46:00;3.85;;;1.23;;
58310;SDS011;45001;52.218;5.154;2022-07-29T07:48:26;3.10;;;1.30;;
58310;SDS011;45001;52.218;5.154;2022-07-29T07:50:51;5.05;;;1.30;;
58310;SDS011;45001;52.218;5.154;2022-07-29T07:53:16;5.20;;;2.05;;
58310;SDS011;45001;52.218;5.154;2022-07-29T07:55:42;2.58;;;1.40;;
58310;SDS011;45001;52.218;5.154;2022-07-29T07:58:08;5.07;;;1.25;;
58310;SDS011;45001;52.218;5.154;2022-07-29T08:00:34;2.40;;;1.13;;
58310;SDS011;45001;52.218;5.154;2022-07-29T08:03:00;3.50;;;1.30;;
58310;SDS011;45001;52.218;5.154;2022-07-29T08:05:25;5.85;;;1.35;;
58310;SDS011;45001;52.218;5.154;2022-07-29T08:07:50;3.22;;;1.30;;
58310;SDS011;45001;52.218;5.154;2022-07-29T08:10:16;3.85;;;1.70;;
58310;SDS011;45001;52.218;5.154;2022-07-29T08:13:06;3.25;;;1.30;;
58310;SDS011;45001;52.218;5.154;2022-07-29T08:15:32;4.00;;;1.38;;
58310;SDS011;45001;52.218;5.154;2022-07-29T08:18:01;3.33;;;1.42;;
58310;SDS011;45001;52.218;5.154;2022-07-29T08:20:29;3.50;;;1.30;;
58310;SDS011;45001;52.218;5.154;2022-07-29T08:22:56;3.55;;;1.50;;
58310;SDS011;45001;52.218;5.154;2022-07-29T08:25:22;2.63;;;1.50;;
58310;SDS011;45001;52.218;5.154;2022-07-29T08:27:47;3.20;;;1.55;;
58310;SDS011;45001;52.218;5.154;2022-07-29T08:30:13;4.95;;;1.77;;
58310;SDS011;45001;52.218;5.154;2022-07-29T08:32:38;2.67;;;1.10;;
58310;SDS011;45001;52.218;5.154;2022-07-29T08:35:04;4.25;;;1.60;;
58310;SDS011;45001;52.218;5.154;2022-07-29T08:37:29;4.80;;;1.48;;
58310;SDS011;45001;52.218;5.154;2022-07-29T08:39:55;2.13;;;1.20;;
58310;SDS011;45001;52.218;5.154;2022-07-29T08:42:20;5.95;;;1.40;;
58310;SDS011;45001;52.218;5.154;2022-07-29T08:44:46;5.18;;;1.30;;
58310;SDS011;45001;52.218;5.154;2022-07-29T08:47:13;5.68;;;1.45;;
58310;SDS011;45001;52.218;5.154;2022-07-29T08:49:39;3.25;;;1.30;;
58310;SDS011;45001;52.218;5.154;2022-07-29T08:52:05;3.78;;;1.60;;
58310;SDS011;45001;52.218;5.154;2022-07-29T08:54:31;3.50;;;1.40;;
58310;SDS011;45001;52.218;5.154;2022-07-29T08:56:57;5.25;;;1.40;;
58310;SDS011;45001;52.218;5.154;2022-07-29T08:59:27;3.45;;;1.48;;
58310;SDS011;45001;52.218;5.154;2022-07-29T09:01:55;4.35;;;1.95;;
58310;SDS011;45001;52.218;5.154;2022-07-29T09:04:24;3.40;;;1.20;;
58310;SDS011;45001;52.218;5.154;2022-07-29T09:06:51;4.38;;;1.63;;
58310;SDS011;45001;52.218;5.154;2022-07-29T09:09:19;2.30;;;1.20;;
58310;SDS011;45001;52.218;5.154;2022-07-29T09:11:44;3.22;;;1.23;;
58310;SDS011;45001;52.218;5.154;2022-07-29T09:14:11;3.25;;;1.20;;
58310;SDS011;45001;52.218;5.154;2022-07-29T09:16:43;5.35;;;1.20;;
58310;SDS011;45001;52.218;5.154;2022-07-29T09:19:18;3.15;;;1.30;;
58310;SDS011;45001;52.218;5.154;2022-07-29T09:22:05;3.75;;;1.05;;
58310;SDS011;45001;52.218;5.154;2022-07-29T09:26:59;5.97;;;1.33;;
58310;SDS011;45001;52.218;5.154;2022-07-29T09:29:25;4.32;;;1.38;;
58310;SDS011;45001;52.218;5.154;2022-07-29T09:31:52;3.15;;;1.63;;
58310;SDS011;45001;52.218;5.154;2022-07-29T09:34:27;3.83;;;1.25;;
58310;SDS011;45001;52.218;5.154;2022-07-29T09:36:56;4.35;;;1.40;;
58310;SDS011;45001;52.218;5.154;2022-07-29T09:39:28;6.10;;;1.30;;
58310;SDS011;45001;52.218;5.154;2022-07-29T09:41:59;3.78;;;1.27;;
58310;SDS011;45001;52.218;5.154;2022-07-29T09:44:46;2.50;;;1.20;;
58310;SDS011;45001;52.218;5.154;2022-07-29T09:47:13;5.00;;;1.10;;
58310;SDS011;45001;52.218;5.154;2022-07-29T09:49:58;4.68;;;1.33;;
58310;SDS011;45001;52.218;5.154;2022-07-29T09:52:29;3.08;;;1.20;;
58310;SDS011;45001;52.218;5.154;2022-07-29T09:55:05;2.80;;;1.20;;
58310;SDS011;45001;52.218;5.154;2022-07-29T09:57:31;4.50;;;1.10;;
58310;SDS011;45001;52.218;5.154;2022-07-29T10:00:00;4.18;;;1.48;;
58310;SDS011;45001;52.218;5.154;2022-07-29T10:02:30;4.72;;;1.50;;
58310;SDS011;45001;52.218;5.154;2022-07-29T10:04:56;3.17;;;1.65;;
58310;SDS011;45001;52.218;5.154;2022-07-29T10:07:22;3.70;;;1.40;;
58310;SDS011;45001;52.218;5.154;2022-07-29T10:09:53;4.47;;;1.25;;
58310;SDS011;45001;52.218;5.154;2022-07-29T10:12:21;4.72;;;1.25;;
58310;SDS011;45001;52.218;5.154;2022-07-29T10:14:46;2.47;;;1.33;;
58310;SDS011;45001;52.218;5.154;2022-07-29T10:17:12;4.88;;;1.52;;
58310;SDS011;45001;52.218;5.154;2022-07-29T10:19:37;5.88;;;1.60;;
58310;SDS011;45001;52.218;5.154;2022-07-29T10:22:05;4.80;;;1.20;;
58310;SDS011;45001;52.218;5.154;2022-07-29T10:24:33;4.75;;;1.40;;
58310;SDS011;45001;52.218;5.154;2022-07-29T10:27:00;4.60;;;1.50;;
58310;SDS011;45001;52.218;5.154;2022-07-29T10:29:27;3.90;;;1.33;;
58310;SDS011;45001;52.218;5.154;2022-07-29T10:38:02;3.70;;;1.17;;
58310;SDS011;45001;52.218;5.154;2022-07-29T10:43:51;2.90;;;1.30;;
58310;SDS011;45001;52.218;5.154;2022-07-29T10:46:18;3.65;;;1.60;;
58310;SDS011;45001;52.218;5.154;2022-07-29T10:57:15;4.10;;;1.77;;
58310;SDS011;45001;52.218;5.154;2022-07-29T10:59:41;5.53;;;1.50;;
58310;SDS011;45001;52.218;5.154;2022-07-29T11:05:02;2.35;;;1.45;;
58310;SDS011;45001;52.218;5.154;2022-07-29T11:07:32;2.53;;;1.30;;
58310;SDS011;45001;52.218;5.154;2022-07-29T11:18:16;2.65;;;1.75;;
58310;SDS011;45001;52.218;5.154;2022-07-29T11:23:23;3.65;;;1.70;;
58310;SDS011;45001;52.218;5.154;2022-07-29T11:31:38;5.80;;;1.50;;
58310;SDS011;45001;52.218;5.154;2022-07-29T11:34:25;4.03;;;1.40;;
58310;SDS011;45001;52.218;5.154;2022-07-29T11:37:13;6.68;;;1.83;;
58310;SDS011;45001;52.218;5.154;2022-07-29T11:50:15;3.70;;;1.58;;
58310;SDS011;45001;52.218;5.154;2022-07-29T11:52:52;5.97;;;1.90;;
58310;SDS011;45001;52.218;5.154;2022-07-29T11:55:18;3.65;;;1.30;;
58310;SDS011;45001;52.218;5.154;2022-07-29T12:02:57;3.22;;;1.20;;
58310;SDS011;45001;52.218;5.154;2022-07-29T12:05:39;3.30;;;1.30;;
58310;SDS011;45001;52.218;5.154;2022-07-29T12:08:08;2.65;;;1.30;;
58310;SDS011;45001;52.218;5.154;2022-07-29T12:10:35;3.72;;;1.33;;
58310;SDS011;45001;52.218;5.154;2022-07-29T12:13:01;3.78;;;1.55;;
58310;SDS011;45001;52.218;5.154;2022-07-29T12:15:29;8.38;;;1.40;;
58310;SDS011;45001;52.218;5.154;2022-07-29T12:17:54;3.35;;;1.50;;
58310;SDS011;45001;52.218;5.154;2022-07-29T12:20:24;4.80;;;1.35;;
58310;SDS011;45001;52.218;5.154;2022-07-29T12:22:54;2.88;;;1.30;;
58310;SDS011;45001;52.218;5.154;2022-07-29T12:25:20;4.13;;;1.70;;
58310;SDS011;45001;52.218;5.154;2022-07-29T12:27:59;3.40;;;1.60;;
58310;SDS011;45001;52.218;5.154;2022-07-29T12:30:33;4.18;;;1.30;;
58310;SDS011;45001;52.218;5.154;2022-07-29T12:33:10;2.53;;;1.40;;
58310;SDS011;45001;52.218;5.154;2022-07-29T12:35:37;3.08;;;1.40;;
58310;SDS011;45001;52.218;5.154;2022-07-29T12:38:03;4.28;;;1.20;;
58310;SDS011;45001;52.218;5.154;2022-07-29T12:40:29;4.25;;;1.55;;
58310;SDS011;45001;52.218;5.154;2022-07-29T12:45:46;3.28;;;1.02;;
58310;SDS011;45001;52.218;5.154;2022-07-29T12:48:13;3.53;;;1.33;;
58310;SDS011;45001;52.218;5.154;2022-07-29T12:50:52;4.03;;;1.45;;
58310;SDS011;45001;52.218;5.154;2022-07-29T12:53:23;2.20;;;1.35;;
58310;SDS011;45001;52.218;5.154;2022-07-29T12:55:50;3.47;;;1.42;;
58310;SDS011;45001;52.218;5.154;2022-07-29T12:58:36;2.17;;;1.13;;
58310;SDS011;45001;52.218;5.154;2022-07-29T13:01:05;2.78;;;1.23;;
58310;SDS011;45001;52.218;5.154;2022-07-29T13:03:46;4.05;;;1.08;;
58310;SDS011;45001;52.218;5.154;2022-07-29T13:06:29;2.47;;;1.30;;
58310;SDS011;45001;52.218;5.154;2022-07-29T13:09:09;4.72;;;1.50;;
58310;SDS011;45001;52.218;5.154;2022-07-29T13:14:04;3.75;;;1.55;;
58310;SDS011;45001;52.218;5.154;2022-07-29T13:16:31;4.60;;;1.40;;
58310;SDS011;45001;52.218;5.154;2022-07-29T13:21:57;6.00;;;1.90;;
58310;SDS011;45001;52.218;5.154;2022-07-29T13:24:22;3.17;;;1.67;;
58310;SDS011;45001;52.218;5.154;2022-07-29T13:26:47;3.35;;;1.40;;
58310;SDS011;45001;52.218;5.154;2022-07-29T13:29:13;3.63;;;1.50;;
58310;SDS011;45001;52.218;5.154;2022-07-29T13:31:38;2.85;;;1.30;;
58310;SDS011;45001;52.218;5.154;2022-07-29T13:34:03;5.38;;;1.50;;
58310;SDS011;45001;52.218;5.154;2022-07-29T13:36:29;4.95;;;1.50;;
58310;SDS011;45001;52.218;5.154;2022-07-29T13:38:54;4.95;;;1.60;;
58310;SDS011;45001;52.218;5.154;2022-07-29T13:41:19;3.67;;;1.40;;
58310;SDS011;45001;52.218;5.154;2022-07-29T13:43:45;5.00;;;1.52;;
58310;SDS011;45001;52.218;5.154;2022-07-29T13:46:10;5.07;;;1.38;;
58310;SDS011;45001;52.218;5.154;2022-07-29T13:48:35;7.13;;;1.65;;
58310;SDS011;45001;52.218;5.154;2022-07-29T13:51:01;3.45;;;1.20;;
58310;SDS011;45001;52.218;5.154;2022-07-29T13:53:26;2.72;;;1.33;;
58310;SDS011;45001;52.218;5.154;2022-07-29T13:55:52;3.17;;;1.40;;
58310;SDS011;45001;52.218;5.154;2022-07-29T13:58:18;2.72;;;1.10;;
58310;SDS011;45001;52.218;5.154;2022-07-29T14:00:44;3.30;;;1.20;;
58310;SDS011;45001;52.218;5.154;2022-07-29T14:03:09;3.25;;;1.30;;
58310;SDS011;45001;52.218;5.154;2022-07-29T14:05:34;4.45;;;1.40;;
58310;SDS011;45001;52.218;5.154;2022-07-29T14:08:00;4.65;;;1.38;;
58310;SDS011;45001;52.218;5.154;2022-07-29T14:10:26;2.65;;;1.17;;
58310;SDS011;45001;52.218;5.154;2022-07-29T14:12:51;3.05;;;1.20;;
58310;SDS011;45001;52.218;5.154;2022-07-29T14:15:16;4.15;;;1.50;;
58310;SDS011;45001;52.218;5.154;2022-07-29T14:17:42;4.43;;;1.40;;
58310;SDS011;45001;52.218;5.154;2022-07-29T14:20:07;7.70;;;1.17;;
58310;SDS011;45001;52.218;5.154;2022-07-29T14:22:33;4.45;;;1.10;;
58310;SDS011;45001;52.218;5.154;2022-07-29T14:24:58;2.97;;;1.30;;
58310;SDS011;45001;52.218;5.154;2022-07-29T14:27:23;3.10;;;1.52;;
58310;SDS011;45001;52.218;5.154;2022-07-29T14:29:49;2.50;;;1.15;;
58310;SDS011;45001;52.218;5.154;2022-07-29T14:32:17;3.83;;;1.60;;
58310;SDS011;45001;52.218;5.154;2022-07-29T14:34:42;3.83;;;1.10;;
58310;SDS011;45001;52.218;5.154;2022-07-29T14:37:07;4.20;;;1.33;;
58310;SDS011;45001;52.218;5.154;2022-07-29T14:39:33;3.33;;;1.40;;
58310;SDS011;45001;52.218;5.154;2022-07-29T14:42:00;5.70;;;1.88;;
58310;SDS011;45001;52.218;5.154;2022-07-29T14:44:26;3.58;;;2.00;;
58310;SDS011;45001;52.218;5.154;2022-07-29T14:46:55;3.15;;;1.20;;
58310;SDS011;45001;52.218;5.154;2022-07-29T14:49:21;3.33;;;1.40;;
58310;SDS011;45001;52.218;5.154;2022-07-29T14:51:46;3.00;;;1.30;;
58310;SDS011;45001;52.218;5.154;2022-07-29T14:54:12;3.83;;;1.58;;
58310;SDS011;45001;52.218;5.154;2022-07-29T14:56:37;3.40;;;1.52;;
58310;SDS011;45001;52.218;5.154;2022-07-29T14:59:03;2.00;;;1.10;;
58310;SDS011;45001;52.218;5.154;2022-07-29T15:01:28;3.90;;;1.50;;
58310;SDS011;45001;52.218;5.154;2022-07-29T15:03:54;4.88;;;1.20;;
58310;SDS011;45001;52.218;5.154;2022-07-29T15:06:19;2.33;;;1.40;;
58310;SDS011;45001;52.218;5.154;2022-07-29T15:08:44;2.78;;;1.23;;
58310;SDS011;45001;52.218;5.154;2022-07-29T15:11:10;3.85;;;1.50;;
58310;SDS011;45001;52.218;5.154;2022-07-29T15:13:35;2.72;;;1.10;;
58310;SDS011;45001;52.218;5.154;2022-07-29T15:16:00;3.80;;;1.33;;
58310;SDS011;45001;52.218;5.154;2022-07-29T15:18:26;1.90;;;1.10;;
58310;SDS011;45001;52.218;5.154;2022-07-29T15:20:51;3.25;;;1.45;;
58310;SDS011;45001;52.218;5.154;2022-07-29T15:23:17;2.58;;;1.30;;
58310;SDS011;45001;52.218;5.154;2022-07-29T15:25:42;2.95;;;1.30;;
58310;SDS011;45001;52.218;5.154;2022-07-29T15:28:07;2.30;;;1.10;;
58310;SDS011;45001;52.218;5.154;2022-07-29T15:30:33;2.50;;;1.30;;
58310;SDS011;45001;52.218;5.154;2022-07-29T15:33:04;3.25;;;1.30;;
58310;SDS011;45001;52.218;5.154;2022-07-29T15:35:30;5.47;;;1.95;;
58310;SDS011;45001;52.218;5.154;2022-07-29T15:37:56;3.22;;;1.25;;
58310;SDS011;45001;52.218;5.154;2022-07-29T15:40:21;4.57;;;1.20;;
58310;SDS011;45001;52.218;5.154;2022-07-29T15:42:46;4.07;;;1.30;;
58310;SDS011;45001;52.218;5.154;2022-07-29T15:45:12;1.60;;;0.90;;
58310;SDS011;45001;52.218;5.154;2022-07-29T15:47:37;3.42;;;1.30;;
58310;SDS011;45001;52.218;5.154;2022-07-29T15:50:02;3.85;;;1.20;;
58310;SDS011;45001;52.218;5.154;2022-07-29T15:52:28;3.72;;;1.27;;
58310;SDS011;45001;52.218;5.154;2022-07-29T15:54:54;2.88;;;1.25;;
58310;SDS011;45001;52.218;5.154;2022-07-29T15:57:20;2.08;;;1.02;;
58310;SDS011;45001;52.218;5.154;2022-07-29T15:59:46;2.30;;;1.17;;
58310;SDS011;45001;52.218;5.154;2022-07-29T16:02:11;2.67;;;1.10;;
58310;SDS011;45001;52.218;5.154;2022-07-29T16:04:36;1.75;;;1.20;;
58310;SDS011;45001;52.218;5.154;2022-07-29T16:07:02;2.88;;;1.30;;